Country
Station

 

Weather  for  Savannah, Savannah International Airport  -  United States    United States

  
12 °C (54 °F)
    
 
 

Current METAR for Savannah, Savannah International Airport is :

KSAV 111853Z 29011KT 10SM CLR 12/M01 A3023 RMK AO2 SLP235 T01221006

 

This is a report for Savannah, Savannah International Airport - United States.
 
The report was made 34 minutes ago, at 18:53 UTC .
The wind was blowing at a speed of 5.7 meters per second (12.7 miles per hour) from west/northwest (290°).
 
The temperature was 12 °C (54 °F), with a dew-point at -1 °C (30 °F).
The atmospheric pressure was 1024 hPa (30.23 inHg).
The relative humidity was 40.5%.
 
The sky was clear.
 
The overall visibility was 16.1 kilometers (10.0 miles).
 

 
 
 
 

Country :   A   B   C   D   E   F   G   H   I   J   K   L   M   N   O   P   Q   R   S   T   U   V   W   Y   Z

 

Site Info  |  Disclaimer  |  Credits  |  Privacy
Contact us  |  Add to favorites
© 2013-2018 METARs - All rights reserved